createdAt,value
2022-08-27T00:00:34.056Z,99.90
2022-08-27T00:03:01.900Z,99.90
2022-08-27T00:05:29.332Z,99.90
2022-08-27T00:07:56.157Z,99.90
2022-08-27T00:10:25.250Z,99.90
2022-08-27T00:12:53.460Z,99.90
2022-08-27T00:15:20.376Z,99.90
2022-08-27T00:17:47.528Z,99.90
2022-08-27T00:20:20.114Z,99.90
2022-08-27T00:22:47.024Z,99.90
2022-08-27T00:25:14.268Z,99.90
2022-08-27T00:27:41.133Z,99.90
2022-08-27T00:30:13.013Z,99.90
2022-08-27T00:32:40.612Z,99.90
2022-08-27T00:35:08.613Z,99.90
2022-08-27T00:37:36.018Z,99.90
2022-08-27T00:40:04.956Z,99.90
2022-08-27T00:42:32.166Z,99.90
2022-08-27T00:44:59.740Z,99.90
2022-08-27T00:47:29.973Z,99.90
2022-08-27T00:50:02.069Z,99.90
2022-08-27T00:52:33.847Z,99.90
2022-08-27T00:55:06.508Z,99.90
2022-08-27T00:57:37.183Z,99.90
2022-08-27T01:00:06.920Z,99.90
2022-08-27T01:02:33.878Z,99.90
2022-08-27T01:05:05.708Z,99.90
2022-08-27T01:07:35.526Z,99.90
2022-08-27T01:10:05.206Z,99.90
2022-08-27T01:12:33.660Z,99.90
2022-08-27T01:15:02.963Z,99.90
2022-08-27T01:17:29.954Z,99.90
2022-08-27T01:20:01.256Z,99.90
2022-08-27T01:23:04.922Z,99.90
2022-08-27T01:25:32.456Z,99.90
2022-08-27T01:28:02.095Z,99.90
2022-08-27T01:30:29.694Z,99.90
2022-08-27T01:32:56.472Z,99.90
2022-08-27T01:35:24.312Z,99.90
2022-08-27T01:37:57.226Z,99.90
2022-08-27T01:40:24.536Z,99.90
2022-08-27T01:42:54.946Z,99.90
2022-08-27T01:45:27.527Z,99.90
2022-08-27T01:47:54.594Z,99.90
2022-08-27T01:50:29.064Z,99.90
2022-08-27T01:52:56.587Z,99.90
2022-08-27T01:55:26.826Z,99.90
2022-08-27T01:57:54.730Z,99.90
2022-08-27T02:00:28.939Z,99.90
2022-08-27T02:02:57.045Z,99.90
2022-08-27T02:05:24.911Z,99.90
2022-08-27T02:07:52.380Z,99.90
2022-08-27T02:10:25.888Z,99.90
2022-08-27T02:12:53.032Z,99.90
2022-08-27T02:15:21.766Z,99.90
2022-08-27T02:17:48.763Z,99.90
2022-08-27T02:20:17.170Z,99.90
2022-08-27T02:22:44.869Z,99.90
2022-08-27T02:25:13.876Z,99.90
2022-08-27T02:27:42.495Z,99.90
2022-08-27T02:30:12.401Z,99.90
2022-08-27T02:32:39.618Z,99.90
2022-08-27T02:35:07.214Z,99.90
2022-08-27T02:37:34.126Z,99.90
2022-08-27T02:40:01.765Z,99.90
2022-08-27T02:42:28.840Z,99.90
2022-08-27T02:44:55.603Z,99.90
2022-08-27T02:47:22.412Z,99.90
2022-08-27T02:49:49.472Z,99.90
2022-08-27T02:52:17.059Z,99.90
2022-08-27T02:54:52.441Z,99.90
2022-08-27T02:57:19.513Z,99.90
2022-08-27T02:59:46.317Z,99.90
2022-08-27T03:02:13.272Z,99.90
2022-08-27T03:04:40.911Z,99.90
2022-08-27T03:07:07.907Z,99.90
2022-08-27T03:09:45.293Z,99.90
2022-08-27T03:12:12.930Z,99.90
2022-08-27T03:14:40.150Z,99.90
2022-08-27T03:17:25.872Z,99.90
2022-08-27T03:19:52.738Z,99.90
2022-08-27T03:22:19.555Z,99.90
2022-08-27T03:24:46.940Z,99.90
2022-08-27T03:27:14.137Z,99.90
2022-08-27T03:29:40.909Z,99.90
2022-08-27T03:32:07.752Z,99.90
2022-08-27T03:34:34.612Z,99.90
2022-08-27T03:37:01.736Z,99.90
2022-08-27T03:39:28.528Z,99.90
2022-08-27T03:41:55.840Z,99.90
2022-08-27T03:44:25.910Z,99.90
2022-08-27T03:46:53.079Z,99.90
2022-08-27T03:49:21.604Z,99.90
2022-08-27T03:51:50.431Z,99.90
2022-08-27T03:54:17.294Z,99.90
2022-08-27T03:56:44.408Z,99.90
2022-08-27T03:59:11.293Z,99.90
2022-08-27T04:01:38.574Z,99.90
2022-08-27T04:04:05.582Z,99.90
2022-08-27T04:06:35.099Z,99.90
2022-08-27T04:09:02.372Z,99.90
2022-08-27T04:11:29.633Z,99.90
2022-08-27T04:13:57.189Z,99.90
2022-08-27T04:16:25.792Z,99.90
2022-08-27T04:18:53.505Z,99.90
2022-08-27T04:21:20.635Z,99.90
2022-08-27T04:23:47.397Z,99.90
2022-08-27T04:26:14.916Z,99.90
2022-08-27T04:28:41.770Z,99.90
2022-08-27T04:31:16.829Z,99.90
2022-08-27T04:33:50.856Z,99.90
2022-08-27T04:36:18.162Z,99.90
2022-08-27T04:38:44.990Z,99.90
2022-08-27T04:41:22.205Z,99.90
2022-08-27T04:43:58.281Z,99.90
2022-08-27T04:46:37.489Z,99.90
2022-08-27T04:49:10.905Z,99.90
2022-08-27T04:51:39.956Z,99.90
2022-08-27T04:54:07.875Z,99.90
2022-08-27T04:56:36.307Z,99.90
2022-08-27T04:59:05.848Z,99.90
2022-08-27T05:01:33.146Z,99.90
2022-08-27T05:04:00.102Z,99.90
2022-08-27T05:06:27.760Z,99.90
2022-08-27T05:08:55.824Z,99.90
2022-08-27T05:11:26.528Z,99.90
2022-08-27T05:13:53.383Z,99.90
2022-08-27T05:16:22.754Z,99.90
2022-08-27T05:18:50.906Z,99.90
2022-08-27T05:21:26.383Z,99.90
2022-08-27T05:23:54.404Z,99.90
2022-08-27T05:26:23.054Z,99.90
2022-08-27T05:28:50.121Z,99.90
2022-08-27T05:31:17.991Z,99.90
2022-08-27T05:33:45.573Z,99.90
2022-08-27T05:36:26.285Z,99.90
2022-08-27T05:38:54.417Z,99.90
2022-08-27T05:41:25.655Z,99.90
2022-08-27T05:44:18.533Z,99.90
2022-08-27T05:46:51.498Z,99.90
2022-08-27T05:49:18.520Z,99.90
2022-08-27T05:51:45.425Z,99.90
2022-08-27T05:54:18.872Z,99.90
2022-08-27T05:56:46.973Z,99.90
2022-08-27T05:59:34.806Z,99.90
2022-08-27T06:02:03.035Z,99.90
2022-08-27T06:04:30.410Z,99.90
2022-08-27T06:06:57.210Z,99.90
2022-08-27T06:09:29.334Z,99.90
2022-08-27T06:11:58.496Z,99.90
2022-08-27T06:14:26.497Z,99.90
2022-08-27T06:16:53.555Z,99.90
2022-08-27T06:19:20.765Z,99.90
2022-08-27T06:22:00.823Z,99.90
2022-08-27T06:24:34.771Z,99.90
2022-08-27T06:27:01.652Z,99.90
2022-08-27T06:29:28.439Z,99.90
2022-08-27T06:31:56.378Z,99.90
2022-08-27T06:34:23.434Z,99.90
2022-08-27T06:36:50.321Z,99.90
2022-08-27T06:39:17.229Z,96.70
2022-08-27T06:41:45.274Z,95.80
2022-08-27T06:44:13.445Z,91.80
2022-08-27T06:46:40.848Z,90.40
2022-08-27T06:49:08.600Z,94.80
2022-08-27T06:51:38.221Z,94.00
2022-08-27T06:54:08.698Z,92.60
2022-08-27T06:56:36.262Z,94.40
2022-08-27T06:59:11.470Z,94.30
2022-08-27T07:01:41.877Z,94.30
2022-08-27T07:04:12.040Z,92.50
2022-08-27T07:06:40.780Z,91.10
2022-08-27T07:09:08.740Z,88.90
2022-08-27T07:11:35.976Z,86.30
2022-08-27T07:14:02.795Z,87.70
2022-08-27T07:16:30.687Z,83.40
2022-08-27T07:19:01.852Z,86.40
2022-08-27T07:21:31.349Z,86.60
2022-08-27T07:23:59.851Z,85.80
2022-08-27T07:26:27.150Z,83.20
2022-08-27T07:28:54.054Z,79.90
2022-08-27T07:31:23.648Z,79.30
2022-08-27T07:33:52.849Z,74.10
2022-08-27T07:36:23.961Z,71.90
2022-08-27T07:38:59.149Z,72.10
2022-08-27T07:41:30.830Z,68.30
2022-08-27T07:44:20.695Z,66.90
2022-08-27T07:46:49.620Z,64.10
2022-08-27T07:49:20.441Z,63.30
2022-08-27T07:51:47.770Z,64.00
2022-08-27T07:54:15.157Z,68.60
2022-08-27T07:56:42.255Z,65.80
2022-08-27T07:59:11.229Z,67.80
2022-08-27T08:01:38.083Z,69.10
2022-08-27T08:04:05.260Z,69.70
2022-08-27T08:06:32.186Z,64.40
2022-08-27T08:09:00.748Z,65.60
2022-08-27T08:11:27.560Z,67.30
2022-08-27T08:13:54.380Z,69.10
2022-08-27T08:16:29.539Z,69.30
2022-08-27T08:19:00.517Z,66.20
2022-08-27T08:21:27.685Z,68.00
2022-08-27T08:23:54.625Z,63.50
2022-08-27T08:26:21.561Z,60.70
2022-08-27T08:28:48.386Z,59.80
2022-08-27T08:31:15.301Z,61.10
2022-08-27T08:33:42.129Z,61.90
2022-08-27T08:36:13.940Z,61.80
2022-08-27T08:38:41.504Z,62.70
2022-08-27T08:41:23.547Z,64.70
2022-08-27T08:43:51.833Z,65.70
2022-08-27T08:46:28.333Z,61.70
2022-08-27T08:49:00.513Z,62.00
2022-08-27T08:51:36.555Z,60.50
2022-08-27T08:54:15.808Z,57.80
2022-08-27T08:56:54.918Z,55.10
2022-08-27T08:59:40.340Z,55.80
2022-08-27T09:02:13.510Z,53.60
2022-08-27T09:04:42.874Z,53.50
2022-08-27T09:07:26.342Z,51.80
2022-08-27T09:10:03.554Z,49.50
2022-08-27T09:12:33.203Z,52.90
2022-08-27T09:15:14.156Z,56.20
2022-08-27T09:17:42.151Z,57.80
2022-08-27T09:20:13.205Z,55.60
2022-08-27T09:22:53.909Z,56.00
2022-08-27T09:25:26.346Z,55.10
2022-08-27T09:27:57.550Z,55.20
2022-08-27T09:30:30.731Z,55.20
2022-08-27T09:33:04.519Z,55.40
2022-08-27T09:35:46.625Z,50.80
2022-08-27T09:38:29.249Z,48.40
2022-08-27T09:41:00.990Z,45.20
2022-08-27T09:43:30.287Z,45.50
2022-08-27T09:46:17.220Z,45.50
2022-08-27T09:48:44.104Z,42.80
2022-08-27T09:51:30.812Z,46.60
2022-08-27T09:54:02.964Z,47.90
2022-08-27T09:56:31.927Z,46.80
2022-08-27T09:59:05.398Z,47.10
2022-08-27T10:01:49.049Z,40.40
2022-08-27T10:04:17.769Z,46.60
2022-08-27T10:06:50.396Z,47.40
2022-08-27T10:09:47.785Z,46.00
2022-08-27T10:12:46.526Z,46.70
2022-08-27T10:15:14.943Z,48.80
2022-08-27T10:18:20.024Z,48.50
2022-08-27T10:21:09.057Z,49.70
2022-08-27T10:23:54.123Z,44.20
2022-08-27T10:26:33.183Z,43.90
2022-08-27T10:29:44.064Z,40.10
2022-08-27T10:32:25.625Z,41.50
2022-08-27T10:35:13.810Z,37.10
2022-08-27T10:38:13.394Z,35.40
2022-08-27T10:40:43.385Z,37.50
2022-08-27T10:43:22.191Z,37.30
2022-08-27T10:46:07.828Z,30.50
2022-08-27T10:48:48.550Z,35.20
2022-08-27T10:51:35.752Z,36.70
2022-08-27T10:54:47.865Z,33.30
2022-08-27T10:57:53.155Z,33.90
2022-08-27T11:00:23.289Z,30.70
2022-08-27T11:03:09.169Z,27.90
2022-08-27T11:05:50.100Z,27.50
2022-08-27T11:08:19.796Z,30.10
2022-08-27T11:11:08.597Z,32.80
2022-08-27T11:13:51.571Z,29.50
2022-08-27T11:16:26.542Z,30.20
2022-08-27T11:19:13.398Z,27.00
2022-08-27T11:21:43.610Z,28.10
2022-08-27T11:24:35.459Z,26.80
2022-08-27T11:27:06.575Z,25.80
2022-08-27T11:29:46.137Z,27.50
2022-08-27T11:32:33.507Z,20.40
2022-08-27T11:35:09.466Z,22.90
2022-08-27T11:38:08.230Z,24.00
2022-08-27T11:40:48.335Z,23.60
2022-08-27T11:43:22.441Z,20.00
2022-08-27T11:45:59.007Z,24.30
2022-08-27T11:48:30.133Z,20.90
2022-08-27T11:51:10.221Z,23.40
2022-08-27T11:53:51.817Z,24.10
2022-08-27T11:56:28.608Z,25.40
2022-08-27T11:58:55.812Z,23.90
2022-08-27T12:01:28.943Z,22.10
2022-08-27T12:04:32.741Z,22.60
2022-08-27T12:07:34.618Z,19.60
2022-08-27T12:10:24.316Z,21.90
2022-08-27T12:13:19.676Z,26.10
2022-08-27T12:15:53.901Z,24.90
2022-08-27T12:18:39.627Z,20.00
2022-08-27T12:21:13.023Z,19.90
2022-08-27T12:23:52.320Z,22.20
2022-08-27T12:26:25.217Z,20.60
2022-08-27T12:29:12.708Z,18.30
2022-08-27T12:31:43.557Z,17.40
2022-08-27T12:34:25.100Z,15.40
2022-08-27T12:36:54.395Z,19.80
2022-08-27T12:39:28.750Z,19.00
2022-08-27T12:41:55.806Z,20.70
2022-08-27T12:44:31.509Z,24.80
2022-08-27T12:47:08.053Z,21.50
2022-08-27T12:49:55.830Z,19.30
2022-08-27T12:52:41.592Z,17.90
2022-08-27T12:55:23.636Z,20.60
2022-08-27T12:58:13.424Z,15.80
2022-08-27T13:01:03.913Z,16.70
2022-08-27T13:03:42.748Z,16.50
2022-08-27T13:06:22.189Z,16.90
2022-08-27T13:08:55.024Z,15.60
2022-08-27T13:11:25.734Z,16.40
2022-08-27T13:14:03.569Z,15.60
2022-08-27T13:16:31.314Z,16.20
2022-08-27T13:18:58.254Z,13.80
2022-08-27T13:21:29.944Z,14.10
2022-08-27T13:24:04.992Z,13.70
2022-08-27T13:26:37.109Z,12.40
2022-08-27T13:29:06.470Z,12.50
2022-08-27T13:31:34.497Z,14.90
2022-08-27T13:34:06.281Z,13.10
2022-08-27T13:36:56.390Z,13.30
2022-08-27T13:39:23.233Z,12.60
2022-08-27T13:41:50.537Z,12.20
2022-08-27T13:44:37.612Z,11.80
2022-08-27T13:47:07.961Z,12.50
2022-08-27T13:49:39.852Z,12.50
2022-08-27T13:52:25.443Z,10.90
2022-08-27T13:55:10.705Z,12.30
2022-08-27T13:57:46.356Z,12.50
2022-08-27T14:00:29.336Z,15.00
2022-08-27T14:02:58.847Z,13.80
2022-08-27T14:05:25.695Z,11.00
2022-08-27T14:07:56.080Z,9.60
2022-08-27T14:10:34.864Z,10.60
2022-08-27T14:13:06.116Z,9.60
2022-08-27T14:15:40.162Z,10.00
2022-08-27T14:18:29.011Z,11.10
2022-08-27T14:21:04.618Z,9.20
2022-08-27T14:23:32.708Z,9.20
2022-08-27T14:26:01.564Z,8.20
2022-08-27T14:28:29.096Z,10.60
2022-08-27T14:30:55.920Z,6.70
2022-08-27T14:33:22.862Z,8.10
2022-08-27T14:35:49.716Z,7.70
2022-08-27T14:38:19.495Z,9.30
2022-08-27T14:40:48.394Z,6.70
2022-08-27T14:43:16.187Z,6.60
2022-08-27T14:45:45.241Z,7.40
2022-08-27T14:48:21.924Z,6.60
2022-08-27T14:50:56.682Z,6.70
2022-08-27T14:53:23.768Z,7.80
2022-08-27T14:55:52.221Z,6.40
2022-08-27T14:58:19.639Z,7.70
2022-08-27T15:00:49.499Z,9.10
2022-08-27T15:03:16.440Z,8.10
2022-08-27T15:05:43.245Z,7.50
2022-08-27T15:08:13.277Z,5.80
2022-08-27T15:10:40.828Z,8.00
2022-08-27T15:13:09.590Z,7.50
2022-08-27T15:15:36.480Z,6.10
2022-08-27T15:18:03.534Z,6.80
2022-08-27T15:20:30.664Z,6.90
2022-08-27T15:22:58.759Z,6.60
2022-08-27T15:25:26.015Z,5.00
2022-08-27T15:27:52.885Z,7.30
2022-08-27T15:30:26.322Z,6.90
2022-08-27T15:32:53.768Z,5.40
2022-08-27T15:35:26.538Z,10.40
2022-08-27T15:37:55.878Z,7.70
2022-08-27T15:40:25.714Z,9.80
2022-08-27T15:43:06.122Z,9.00
2022-08-27T15:45:33.306Z,11.40
2022-08-27T15:48:00.685Z,11.30
2022-08-27T15:50:29.051Z,10.20
2022-08-27T15:53:05.208Z,8.90
2022-08-27T15:55:35.088Z,10.30
2022-08-27T15:58:02.147Z,10.80
2022-08-27T16:00:33.006Z,9.80
2022-08-27T16:03:02.943Z,11.10
2022-08-27T16:05:33.052Z,12.70
2022-08-27T16:07:59.850Z,13.50
2022-08-27T16:10:26.734Z,13.50
2022-08-27T16:12:53.804Z,13.40
2022-08-27T16:15:20.748Z,16.80
2022-08-27T16:17:49.208Z,15.60
2022-08-27T16:20:16.895Z,15.70
2022-08-27T16:22:45.057Z,16.20
2022-08-27T16:25:16.531Z,16.90
2022-08-27T16:27:45.168Z,18.20
2022-08-27T16:30:12.755Z,18.60
2022-08-27T16:32:39.816Z,18.90
2022-08-27T16:35:08.750Z,19.50
2022-08-27T16:37:35.637Z,19.90
2022-08-27T16:40:02.658Z,20.40
2022-08-27T16:42:29.542Z,20.90
2022-08-27T16:44:56.879Z,22.00
2022-08-27T16:47:23.749Z,21.00
2022-08-27T16:50:09.128Z,21.40
2022-08-27T16:52:36.300Z,21.00
2022-08-27T16:55:03.638Z,21.70
2022-08-27T16:57:30.460Z,21.60
2022-08-27T16:59:57.310Z,22.10
2022-08-27T17:02:30.399Z,21.20
2022-08-27T17:05:12.248Z,23.40
2022-08-27T17:07:48.971Z,24.00
2022-08-27T17:10:20.475Z,24.30
2022-08-27T17:12:48.334Z,24.40
2022-08-27T17:15:16.760Z,24.80
2022-08-27T17:17:45.143Z,24.60
2022-08-27T17:20:12.805Z,26.80
2022-08-27T17:22:39.771Z,26.70
2022-08-27T17:25:07.848Z,29.30
2022-08-27T17:27:34.752Z,29.80
2022-08-27T17:30:01.630Z,30.00
2022-08-27T17:32:38.445Z,30.50
2022-08-27T17:35:07.838Z,31.30
2022-08-27T17:37:34.869Z,32.20
2022-08-27T17:40:02.206Z,32.40
2022-08-27T17:42:31.124Z,32.30
2022-08-27T17:44:58.363Z,32.00
2022-08-27T17:47:26.114Z,33.30
2022-08-27T17:49:52.960Z,32.70
2022-08-27T17:52:20.739Z,32.00
2022-08-27T17:54:51.251Z,32.90
2022-08-27T17:57:19.769Z,32.80
2022-08-27T17:59:46.915Z,33.10
2022-08-27T18:02:25.214Z,33.00
2022-08-27T18:04:52.553Z,33.30
2022-08-27T18:07:19.752Z,33.50
2022-08-27T18:09:48.022Z,33.40
2022-08-27T18:12:19.379Z,34.40
2022-08-27T18:14:51.541Z,34.70
2022-08-27T18:17:18.334Z,35.50
2022-08-27T18:19:45.914Z,35.00
2022-08-27T18:22:17.428Z,35.60
2022-08-27T18:24:44.260Z,37.20
2022-08-27T18:27:11.392Z,36.90
2022-08-27T18:29:38.206Z,37.30
2022-08-27T18:32:05.129Z,38.60
2022-08-27T18:34:32.556Z,39.40
2022-08-27T18:36:59.441Z,40.50
2022-08-27T18:39:26.575Z,40.70
2022-08-27T18:41:54.146Z,40.80
2022-08-27T18:44:20.988Z,40.90
2022-08-27T18:46:47.813Z,42.30
2022-08-27T18:49:14.927Z,42.40
2022-08-27T18:51:43.733Z,43.00
2022-08-27T18:54:10.866Z,42.50
2022-08-27T18:56:37.690Z,42.20
2022-08-27T18:59:07.026Z,42.30
2022-08-27T19:01:34.138Z,43.20
2022-08-27T19:04:01.242Z,43.50
2022-08-27T19:06:28.127Z,44.40
2022-08-27T19:08:56.311Z,43.50
2022-08-27T19:11:23.142Z,46.00
2022-08-27T19:13:50.591Z,45.50
2022-08-27T19:16:36.018Z,45.00
2022-08-27T19:19:04.000Z,46.50
2022-08-27T19:21:31.608Z,45.70
2022-08-27T19:23:58.444Z,46.40
2022-08-27T19:26:26.104Z,47.00
2022-08-27T19:28:53.190Z,47.40
2022-08-27T19:31:20.138Z,47.40
2022-08-27T19:33:47.051Z,48.50
2022-08-27T19:36:16.290Z,49.40
2022-08-27T19:38:44.892Z,49.50
2022-08-27T19:41:12.103Z,50.10
2022-08-27T19:43:38.941Z,50.20
2022-08-27T19:46:11.946Z,50.80
2022-08-27T19:48:38.806Z,50.50
2022-08-27T19:51:05.815Z,51.30
2022-08-27T19:53:32.677Z,51.10
2022-08-27T19:55:59.474Z,51.60
2022-08-27T19:58:26.334Z,51.20
2022-08-27T20:00:53.466Z,50.20
2022-08-27T20:03:20.758Z,50.50
2022-08-27T20:05:50.181Z,50.00
2022-08-27T20:08:17.383Z,50.40
2022-08-27T20:10:46.586Z,49.70
2022-08-27T20:13:13.796Z,50.90
2022-08-27T20:15:40.705Z,50.40
2022-08-27T20:18:07.914Z,49.70
2022-08-27T20:20:35.970Z,49.90
2022-08-27T20:23:03.838Z,50.20
2022-08-27T20:25:31.935Z,51.00
2022-08-27T20:27:58.833Z,50.70
2022-08-27T20:30:27.670Z,50.10
2022-08-27T20:32:54.647Z,50.50
2022-08-27T20:35:22.718Z,50.80
2022-08-27T20:37:50.220Z,51.50
2022-08-27T20:40:21.267Z,51.70
2022-08-27T20:42:48.103Z,52.00
2022-08-27T20:45:15.907Z,52.30
2022-08-27T20:47:44.816Z,52.00
2022-08-27T20:50:12.901Z,52.70
2022-08-27T20:52:41.280Z,52.60
2022-08-27T20:55:09.803Z,53.20
2022-08-27T20:57:36.604Z,52.70
2022-08-27T21:00:20.434Z,53.10
2022-08-27T21:02:47.904Z,52.40
2022-08-27T21:05:17.605Z,52.10
2022-08-27T21:07:46.002Z,52.30
2022-08-27T21:10:12.791Z,52.40
2022-08-27T21:12:39.573Z,53.70
2022-08-27T21:15:08.324Z,55.10
2022-08-27T21:17:35.780Z,56.20
2022-08-27T21:20:06.036Z,57.30
2022-08-27T21:22:32.813Z,58.60
2022-08-27T21:24:59.707Z,58.50
2022-08-27T21:27:26.618Z,58.30
2022-08-27T21:29:53.678Z,57.50
2022-08-27T21:32:20.562Z,58.20
2022-08-27T21:34:47.366Z,57.60
2022-08-27T21:37:16.335Z,57.90
2022-08-27T21:39:43.734Z,57.90
2022-08-27T21:42:12.539Z,58.10
2022-08-27T21:44:39.933Z,57.60
2022-08-27T21:47:06.873Z,58.10
2022-08-27T21:49:33.930Z,58.00
2022-08-27T21:52:06.117Z,58.60
2022-08-27T21:54:36.218Z,58.70
2022-08-27T21:57:04.475Z,58.60
2022-08-27T21:59:40.906Z,58.90
2022-08-27T22:02:28.941Z,58.70
2022-08-27T22:04:55.448Z,58.70
2022-08-27T22:07:24.313Z,58.60
2022-08-27T22:09:51.295Z,59.30
2022-08-27T22:12:18.135Z,59.20
2022-08-27T22:14:45.074Z,59.50
2022-08-27T22:17:15.726Z,60.00
2022-08-27T22:19:42.913Z,59.80
2022-08-27T22:22:10.217Z,60.00
2022-08-27T22:24:37.011Z,60.60
2022-08-27T22:27:04.084Z,61.20
2022-08-27T22:29:30.921Z,63.50
2022-08-27T22:31:58.646Z,64.80
2022-08-27T22:34:25.538Z,64.50
2022-08-27T22:36:53.091Z,65.30
2022-08-27T22:39:19.900Z,65.40
2022-08-27T22:41:48.851Z,66.80
2022-08-27T22:44:16.131Z,66.70
2022-08-27T22:46:43.027Z,67.60
2022-08-27T22:49:09.987Z,66.80
2022-08-27T22:51:36.820Z,67.60
2022-08-27T22:54:03.726Z,66.90
2022-08-27T22:56:30.580Z,68.50
2022-08-27T22:58:57.365Z,68.80
2022-08-27T23:01:24.727Z,68.70
2022-08-27T23:03:53.100Z,69.60
2022-08-27T23:06:20.068Z,68.90
2022-08-27T23:08:47.372Z,68.90
2022-08-27T23:11:15.941Z,69.60
2022-08-27T23:13:42.905Z,69.40
2022-08-27T23:16:10.046Z,71.40
2022-08-27T23:18:38.974Z,71.60
2022-08-27T23:21:06.118Z,72.20
2022-08-27T23:23:34.275Z,72.20
2022-08-27T23:26:19.545Z,72.80
2022-08-27T23:28:46.848Z,73.10
2022-08-27T23:31:14.211Z,72.50
2022-08-27T23:33:41.726Z,74.10
2022-08-27T23:36:09.729Z,74.00
2022-08-27T23:38:36.671Z,74.40
2022-08-27T23:41:03.856Z,74.30
2022-08-27T23:43:30.722Z,75.00
2022-08-27T23:45:57.618Z,75.90
2022-08-27T23:48:24.771Z,76.20
2022-08-27T23:50:52.045Z,76.70
2022-08-27T23:53:19.035Z,77.20
2022-08-27T23:55:45.925Z,78.00
2022-08-27T23:58:13.161Z,78.70
